sensor_id;sensor_type;location;lat;lon;timestamp;temperature;humidity
3752;DHT22;50827;47.014;7.652;2022-08-19T00:01:58;19.30;99.90
3752;DHT22;50827;47.014;7.652;2022-08-19T00:04:29;19.30;99.90
3752;DHT22;50827;47.014;7.652;2022-08-19T00:06:57;19.30;99.90
3752;DHT22;50827;47.014;7.652;2022-08-19T00:09:25;19.20;99.90
3752;DHT22;50827;47.014;7.652;2022-08-19T00:11:53;19.20;99.90
3752;DHT22;50827;47.014;7.652;2022-08-19T00:14:22;19.20;99.90
3752;DHT22;50827;47.014;7.652;2022-08-19T00:16:50;19.20;99.90
3752;DHT22;50827;47.014;7.652;2022-08-19T00:19:21;19.10;99.90
3752;DHT22;50827;47.014;7.652;2022-08-19T00:21:48;19.00;99.90
3752;DHT22;50827;47.014;7.652;2022-08-19T00:24:15;19.00;99.90
3752;DHT22;50827;47.014;7.652;2022-08-19T00:26:43;18.90;99.90
3752;DHT22;50827;47.014;7.652;2022-08-19T00:29:11;18.90;99.90
3752;DHT22;50827;47.014;7.652;2022-08-19T00:31:39;18.90;99.90
3752;DHT22;50827;47.014;7.652;2022-08-19T00:34:05;18.80;99.90
3752;DHT22;50827;47.014;7.652;2022-08-19T00:36:32;18.80;99.90
3752;DHT22;50827;47.014;7.652;2022-08-19T00:39:00;18.80;99.90
3752;DHT22;50827;47.014;7.652;2022-08-19T00:41:27;18.70;99.90
3752;DHT22;50827;47.014;7.652;2022-08-19T00:46:31;18.80;99.90
3752;DHT22;50827;47.014;7.652;2022-08-19T00:49:00;18.70;99.90
3752;DHT22;50827;47.014;7.652;2022-08-19T00:51:30;18.70;99.90
3752;DHT22;50827;47.014;7.652;2022-08-19T00:53:59;18.70;99.90
3752;DHT22;50827;47.014;7.652;2022-08-19T00:56:27;18.70;99.90
3752;DHT22;50827;47.014;7.652;2022-08-19T00:58:56;18.70;99.90
3752;DHT22;50827;47.014;7.652;2022-08-19T01:01:25;18.70;99.90
3752;DHT22;50827;47.014;7.652;2022-08-19T01:03:51;18.70;99.90
3752;DHT22;50827;47.014;7.652;2022-08-19T01:06:25;18.70;99.90
3752;DHT22;50827;47.014;7.652;2022-08-19T01:08:53;18.70;99.90
3752;DHT22;50827;47.014;7.652;2022-08-19T01:11:19;18.60;99.90
3752;DHT22;50827;47.014;7.652;2022-08-19T01:13:47;18.60;99.90
3752;DHT22;50827;47.014;7.652;2022-08-19T01:16:17;18.60;99.90
3752;DHT22;50827;47.014;7.652;2022-08-19T01:18:45;18.60;99.90
3752;DHT22;50827;47.014;7.652;2022-08-19T01:23:50;18.50;99.90
3752;DHT22;50827;47.014;7.652;2022-08-19T01:26:21;18.50;99.90
3752;DHT22;50827;47.014;7.652;2022-08-19T01:28:52;18.50;99.90
3752;DHT22;50827;47.014;7.652;2022-08-19T01:31:27;18.50;99.90
3752;DHT22;50827;47.014;7.652;2022-08-19T01:33:59;18.50;99.90
3752;DHT22;50827;47.014;7.652;2022-08-19T01:38:56;18.70;99.90
3752;DHT22;50827;47.014;7.652;2022-08-19T01:41:23;18.70;99.90
3752;DHT22;50827;47.014;7.652;2022-08-19T01:43:51;18.60;99.90
3752;DHT22;50827;47.014;7.652;2022-08-19T01:46:38;18.60;99.90
3752;DHT22;50827;47.014;7.652;2022-08-19T01:49:07;18.60;99.90
3752;DHT22;50827;47.014;7.652;2022-08-19T01:51:34;18.50;99.90
3752;DHT22;50827;47.014;7.652;2022-08-19T01:54:08;18.50;99.90
3752;DHT22;50827;47.014;7.652;2022-08-19T01:56:35;18.50;99.90
3752;DHT22;50827;47.014;7.652;2022-08-19T01:59:05;18.50;99.90
3752;DHT22;50827;47.014;7.652;2022-08-19T02:01:34;18.50;99.90
3752;DHT22;50827;47.014;7.652;2022-08-19T02:04:01;18.50;99.90
3752;DHT22;50827;47.014;7.652;2022-08-19T02:06:29;18.50;99.90
3752;DHT22;50827;47.014;7.652;2022-08-19T02:08:56;18.60;99.90
3752;DHT22;50827;47.014;7.652;2022-08-19T02:11:28;18.60;99.90
3752;DHT22;50827;47.014;7.652;2022-08-19T02:13:59;18.70;99.90
3752;DHT22;50827;47.014;7.652;2022-08-19T02:16:26;18.70;99.90
3752;DHT22;50827;47.014;7.652;2022-08-19T02:18:53;18.70;99.90
3752;DHT22;50827;47.014;7.652;2022-08-19T02:21:22;18.70;99.90
3752;DHT22;50827;47.014;7.652;2022-08-19T02:23:50;18.80;99.90
3752;DHT22;50827;47.014;7.652;2022-08-19T02:26:18;18.80;99.90
3752;DHT22;50827;47.014;7.652;2022-08-19T02:28:45;18.80;99.90
3752;DHT22;50827;47.014;7.652;2022-08-19T02:31:15;18.80;99.90
3752;DHT22;50827;47.014;7.652;2022-08-19T02:33:42;18.80;99.90
3752;DHT22;50827;47.014;7.652;2022-08-19T02:36:11;18.80;99.90
3752;DHT22;50827;47.014;7.652;2022-08-19T02:38:42;18.80;99.90
3752;DHT22;50827;47.014;7.652;2022-08-19T02:41:23;18.90;99.90
3752;DHT22;50827;47.014;7.652;2022-08-19T02:43:53;18.90;99.90
3752;DHT22;50827;47.014;7.652;2022-08-19T02:46:40;19.00;99.90
3752;DHT22;50827;47.014;7.652;2022-08-19T02:49:07;18.90;99.90
3752;DHT22;50827;47.014;7.652;2022-08-19T02:51:37;19.00;99.90
3752;DHT22;50827;47.014;7.652;2022-08-19T02:54:06;19.00;99.90
3752;DHT22;50827;47.014;7.652;2022-08-19T02:56:38;19.00;99.90
3752;DHT22;50827;47.014;7.652;2022-08-19T03:01:40;19.00;99.90
3752;DHT22;50827;47.014;7.652;2022-08-19T03:04:14;19.00;99.90
3752;DHT22;50827;47.014;7.652;2022-08-19T03:06:43;19.00;99.90
3752;DHT22;50827;47.014;7.652;2022-08-19T03:09:11;18.90;99.90
3752;DHT22;50827;47.014;7.652;2022-08-19T03:11:38;18.90;99.90
3752;DHT22;50827;47.014;7.652;2022-08-19T03:14:07;18.80;99.90
3752;DHT22;50827;47.014;7.652;2022-08-19T03:16:44;18.80;99.90
3752;DHT22;50827;47.014;7.652;2022-08-19T03:19:11;18.80;99.90
3752;DHT22;50827;47.014;7.652;2022-08-19T03:21:38;18.80;99.90
3752;DHT22;50827;47.014;7.652;2022-08-19T03:24:08;18.80;99.90
3752;DHT22;50827;47.014;7.652;2022-08-19T03:26:39;18.80;99.90
3752;DHT22;50827;47.014;7.652;2022-08-19T03:29:07;18.80;99.90
3752;DHT22;50827;47.014;7.652;2022-08-19T03:31:38;18.90;99.90
3752;DHT22;50827;47.014;7.652;2022-08-19T03:34:17;18.90;99.90
3752;DHT22;50827;47.014;7.652;2022-08-19T03:36:45;18.90;99.90
3752;DHT22;50827;47.014;7.652;2022-08-19T03:39:12;18.90;99.90
3752;DHT22;50827;47.014;7.652;2022-08-19T03:41:41;18.90;99.90
3752;DHT22;50827;47.014;7.652;2022-08-19T03:44:13;18.90;99.90
3752;DHT22;50827;47.014;7.652;2022-08-19T03:46:51;19.00;99.90
3752;DHT22;50827;47.014;7.652;2022-08-19T03:49:19;18.90;99.90
3752;DHT22;50827;47.014;7.652;2022-08-19T03:51:48;18.90;99.90
3752;DHT22;50827;47.014;7.652;2022-08-19T03:54:18;19.00;99.90
3752;DHT22;50827;47.014;7.652;2022-08-19T03:56:47;19.00;99.90
3752;DHT22;50827;47.014;7.652;2022-08-19T03:59:17;19.00;99.90
3752;DHT22;50827;47.014;7.652;2022-08-19T04:01:45;19.00;99.90
3752;DHT22;50827;47.014;7.652;2022-08-19T04:04:12;19.00;99.90
3752;DHT22;50827;47.014;7.652;2022-08-19T04:06:39;19.00;99.90
3752;DHT22;50827;47.014;7.652;2022-08-19T04:09:10;19.00;99.90
3752;DHT22;50827;47.014;7.652;2022-08-19T04:11:40;19.00;99.90
3752;DHT22;50827;47.014;7.652;2022-08-19T04:14:18;19.00;99.90
3752;DHT22;50827;47.014;7.652;2022-08-19T04:16:47;19.00;99.90
3752;DHT22;50827;47.014;7.652;2022-08-19T04:19:15;19.00;99.90
3752;DHT22;50827;47.014;7.652;2022-08-19T04:21:44;19.00;99.90
3752;DHT22;50827;47.014;7.652;2022-08-19T04:24:12;19.00;99.90
3752;DHT22;50827;47.014;7.652;2022-08-19T04:26:39;19.00;99.90
3752;DHT22;50827;47.014;7.652;2022-08-19T04:29:13;19.00;99.90
3752;DHT22;50827;47.014;7.652;2022-08-19T04:31:40;19.00;99.90
3752;DHT22;50827;47.014;7.652;2022-08-19T04:34:09;19.00;99.90
3752;DHT22;50827;47.014;7.652;2022-08-19T04:36:39;18.90;99.90
3752;DHT22;50827;47.014;7.652;2022-08-19T04:39:15;18.90;99.90
3752;DHT22;50827;47.014;7.652;2022-08-19T04:41:43;18.80;99.90
3752;DHT22;50827;47.014;7.652;2022-08-19T04:44:29;18.70;99.90
3752;DHT22;50827;47.014;7.652;2022-08-19T04:46:59;18.60;99.90
3752;DHT22;50827;47.014;7.652;2022-08-19T04:49:27;18.60;99.90
3752;DHT22;50827;47.014;7.652;2022-08-19T04:51:54;18.60;99.90
3752;DHT22;50827;47.014;7.652;2022-08-19T04:54:23;18.60;99.90
3752;DHT22;50827;47.014;7.652;2022-08-19T04:57:06;18.50;99.90
3752;DHT22;50827;47.014;7.652;2022-08-19T04:59:33;18.60;99.90
3752;DHT22;50827;47.014;7.652;2022-08-19T05:02:00;18.50;99.90
3752;DHT22;50827;47.014;7.652;2022-08-19T05:04:27;18.50;99.90
3752;DHT22;50827;47.014;7.652;2022-08-19T05:06:58;18.50;99.90
3752;DHT22;50827;47.014;7.652;2022-08-19T05:09:27;18.50;99.90
3752;DHT22;50827;47.014;7.652;2022-08-19T05:12:14;18.40;99.90
3752;DHT22;50827;47.014;7.652;2022-08-19T05:14:42;18.40;99.90
3752;DHT22;50827;47.014;7.652;2022-08-19T05:17:09;18.30;99.90
3752;DHT22;50827;47.014;7.652;2022-08-19T05:19:53;18.40;99.90
3752;DHT22;50827;47.014;7.652;2022-08-19T05:22:40;18.40;99.90
3752;DHT22;50827;47.014;7.652;2022-08-19T05:25:09;18.40;99.90
3752;DHT22;50827;47.014;7.652;2022-08-19T05:27:40;18.50;99.90
3752;DHT22;50827;47.014;7.652;2022-08-19T05:30:07;18.50;99.90
3752;DHT22;50827;47.014;7.652;2022-08-19T05:32:34;18.50;99.90
3752;DHT22;50827;47.014;7.652;2022-08-19T05:35:01;18.50;99.90
3752;DHT22;50827;47.014;7.652;2022-08-19T05:37:28;18.40;99.90
3752;DHT22;50827;47.014;7.652;2022-08-19T05:39:55;18.50;99.90
3752;DHT22;50827;47.014;7.652;2022-08-19T05:42:22;18.50;99.90
3752;DHT22;50827;47.014;7.652;2022-08-19T05:44:50;18.50;99.90
3752;DHT22;50827;47.014;7.652;2022-08-19T05:47:17;18.60;99.90
3752;DHT22;50827;47.014;7.652;2022-08-19T05:49:48;18.60;99.90
3752;DHT22;50827;47.014;7.652;2022-08-19T05:52:17;18.60;99.90
3752;DHT22;50827;47.014;7.652;2022-08-19T05:54:45;18.60;99.90
3752;DHT22;50827;47.014;7.652;2022-08-19T05:57:18;18.60;99.90
3752;DHT22;50827;47.014;7.652;2022-08-19T05:59:45;18.60;99.90
3752;DHT22;50827;47.014;7.652;2022-08-19T06:02:14;18.60;99.90
3752;DHT22;50827;47.014;7.652;2022-08-19T06:04:41;18.60;99.90
3752;DHT22;50827;47.014;7.652;2022-08-19T06:07:09;18.60;99.90
3752;DHT22;50827;47.014;7.652;2022-08-19T06:09:37;18.60;99.90
3752;DHT22;50827;47.014;7.652;2022-08-19T06:12:04;18.60;99.90
3752;DHT22;50827;47.014;7.652;2022-08-19T06:14:33;18.60;99.90
3752;DHT22;50827;47.014;7.652;2022-08-19T06:17:06;18.70;99.90
3752;DHT22;50827;47.014;7.652;2022-08-19T06:19:33;18.70;99.90
3752;DHT22;50827;47.014;7.652;2022-08-19T06:22:06;18.70;99.90
3752;DHT22;50827;47.014;7.652;2022-08-19T06:24:34;18.70;99.90
3752;DHT22;50827;47.014;7.652;2022-08-19T06:27:02;18.60;99.90
3752;DHT22;50827;47.014;7.652;2022-08-19T06:29:29;18.60;99.90
3752;DHT22;50827;47.014;7.652;2022-08-19T06:31:58;18.60;99.90
3752;DHT22;50827;47.014;7.652;2022-08-19T06:34:27;18.70;99.90
3752;DHT22;50827;47.014;7.652;2022-08-19T06:36:56;18.60;99.90
3752;DHT22;50827;47.014;7.652;2022-08-19T06:39:25;18.70;99.90
3752;DHT22;50827;47.014;7.652;2022-08-19T06:41:54;18.80;99.90
3752;DHT22;50827;47.014;7.652;2022-08-19T06:44:28;18.80;99.90
3752;DHT22;50827;47.014;7.652;2022-08-19T06:46:57;18.90;99.90
3752;DHT22;50827;47.014;7.652;2022-08-19T06:49:25;18.90;99.90
3752;DHT22;50827;47.014;7.652;2022-08-19T06:51:58;19.00;99.90
3752;DHT22;50827;47.014;7.652;2022-08-19T06:54:29;19.00;99.90
3752;DHT22;50827;47.014;7.652;2022-08-19T06:56:57;19.00;99.90
3752;DHT22;50827;47.014;7.652;2022-08-19T06:59:25;19.10;99.90
3752;DHT22;50827;47.014;7.652;2022-08-19T07:01:56;19.10;99.90
3752;DHT22;50827;47.014;7.652;2022-08-19T07:04:26;19.20;99.90
3752;DHT22;50827;47.014;7.652;2022-08-19T07:06:59;19.20;99.90
3752;DHT22;50827;47.014;7.652;2022-08-19T07:09:45;19.20;99.90
3752;DHT22;50827;47.014;7.652;2022-08-19T07:12:30;19.20;99.90
3752;DHT22;50827;47.014;7.652;2022-08-19T07:15:01;19.10;99.90
3752;DHT22;50827;47.014;7.652;2022-08-19T07:17:29;19.00;99.90
3752;DHT22;50827;47.014;7.652;2022-08-19T07:19:56;19.00;99.90
3752;DHT22;50827;47.014;7.652;2022-08-19T07:22:31;19.00;99.90
3752;DHT22;50827;47.014;7.652;2022-08-19T07:24:59;19.00;99.90
3752;DHT22;50827;47.014;7.652;2022-08-19T07:27:25;19.00;99.90
3752;DHT22;50827;47.014;7.652;2022-08-19T07:29:53;19.00;99.90
3752;DHT22;50827;47.014;7.652;2022-08-19T07:32:24;18.90;99.90
3752;DHT22;50827;47.014;7.652;2022-08-19T07:34:55;18.90;99.90
3752;DHT22;50827;47.014;7.652;2022-08-19T07:37:24;18.90;99.90
3752;DHT22;50827;47.014;7.652;2022-08-19T07:39:58;18.80;99.90
3752;DHT22;50827;47.014;7.652;2022-08-19T07:42:25;18.80;99.90
3752;DHT22;50827;47.014;7.652;2022-08-19T07:44:53;18.80;99.90
3752;DHT22;50827;47.014;7.652;2022-08-19T07:47:19;18.80;99.90
3752;DHT22;50827;47.014;7.652;2022-08-19T07:50:08;18.80;99.90
3752;DHT22;50827;47.014;7.652;2022-08-19T07:52:36;18.80;99.90
3752;DHT22;50827;47.014;7.652;2022-08-19T07:55:07;18.80;99.90
3752;DHT22;50827;47.014;7.652;2022-08-19T07:57:53;18.80;99.90
3752;DHT22;50827;47.014;7.652;2022-08-19T08:00:21;18.90;99.90
3752;DHT22;50827;47.014;7.652;2022-08-19T08:02:50;19.00;99.90
3752;DHT22;50827;47.014;7.652;2022-08-19T08:05:17;18.90;99.90
3752;DHT22;50827;47.014;7.652;2022-08-19T08:08:08;19.00;99.90
3752;DHT22;50827;47.014;7.652;2022-08-19T08:10:53;19.00;99.90
3752;DHT22;50827;47.014;7.652;2022-08-19T08:13:23;18.90;99.90
3752;DHT22;50827;47.014;7.652;2022-08-19T08:15:50;18.90;99.90
3752;DHT22;50827;47.014;7.652;2022-08-19T08:18:18;19.00;99.90
3752;DHT22;50827;47.014;7.652;2022-08-19T08:20:47;19.00;99.90
3752;DHT22;50827;47.014;7.652;2022-08-19T08:23:14;19.00;99.90
3752;DHT22;50827;47.014;7.652;2022-08-19T08:25:54;19.10;99.90
3752;DHT22;50827;47.014;7.652;2022-08-19T08:28:22;19.00;99.90
3752;DHT22;50827;47.014;7.652;2022-08-19T08:30:51;19.00;99.90
3752;DHT22;50827;47.014;7.652;2022-08-19T08:33:23;19.00;99.90
3752;DHT22;50827;47.014;7.652;2022-08-19T08:36:00;19.00;99.90
3752;DHT22;50827;47.014;7.652;2022-08-19T08:38:30;19.00;99.90
3752;DHT22;50827;47.014;7.652;2022-08-19T08:43:58;19.00;99.90
3752;DHT22;50827;47.014;7.652;2022-08-19T08:46:51;19.00;99.90
3752;DHT22;50827;47.014;7.652;2022-08-19T08:52:06;19.00;99.90
3752;DHT22;50827;47.014;7.652;2022-08-19T08:54:43;19.00;99.90
3752;DHT22;50827;47.014;7.652;2022-08-19T08:57:35;19.00;99.90
3752;DHT22;50827;47.014;7.652;2022-08-19T09:00:11;19.00;99.90
3752;DHT22;50827;47.014;7.652;2022-08-19T09:02:42;18.90;99.90
3752;DHT22;50827;47.014;7.652;2022-08-19T09:05:10;19.00;99.90
3752;DHT22;50827;47.014;7.652;2022-08-19T09:10:39;19.10;99.90
3752;DHT22;50827;47.014;7.652;2022-08-19T09:16:13;19.30;99.90
3752;DHT22;50827;47.014;7.652;2022-08-19T09:21:14;19.40;99.90
3752;DHT22;50827;47.014;7.652;2022-08-19T09:23:42;19.40;99.90
3752;DHT22;50827;47.014;7.652;2022-08-19T09:26:12;19.50;99.90
3752;DHT22;50827;47.014;7.652;2022-08-19T09:28:43;19.60;99.90
3752;DHT22;50827;47.014;7.652;2022-08-19T09:31:16;19.60;99.90
3752;DHT22;50827;47.014;7.652;2022-08-19T09:33:43;19.60;99.90
3752;DHT22;50827;47.014;7.652;2022-08-19T09:36:12;19.70;99.90
3752;DHT22;50827;47.014;7.652;2022-08-19T09:38:56;19.80;99.90
3752;DHT22;50827;47.014;7.652;2022-08-19T09:41:24;19.80;99.90
3752;DHT22;50827;47.014;7.652;2022-08-19T09:43:55;19.70;99.90
3752;DHT22;50827;47.014;7.652;2022-08-19T09:46:25;19.70;99.90
3752;DHT22;50827;47.014;7.652;2022-08-19T09:48:52;19.70;99.90
3752;DHT22;50827;47.014;7.652;2022-08-19T09:51:22;19.70;99.90
3752;DHT22;50827;47.014;7.652;2022-08-19T09:53:51;19.60;99.90
3752;DHT22;50827;47.014;7.652;2022-08-19T09:56:19;19.70;99.90
3752;DHT22;50827;47.014;7.652;2022-08-19T09:58:46;19.60;99.90
3752;DHT22;50827;47.014;7.652;2022-08-19T10:01:24;19.50;99.90
3752;DHT22;50827;47.014;7.652;2022-08-19T10:03:54;19.40;99.90
3752;DHT22;50827;47.014;7.652;2022-08-19T10:06:23;19.40;99.90
3752;DHT22;50827;47.014;7.652;2022-08-19T10:09:10;19.40;99.90
3752;DHT22;50827;47.014;7.652;2022-08-19T10:11:40;19.40;99.90
3752;DHT22;50827;47.014;7.652;2022-08-19T10:14:18;19.30;99.90
3752;DHT22;50827;47.014;7.652;2022-08-19T10:16:49;19.30;99.90
3752;DHT22;50827;47.014;7.652;2022-08-19T10:19:17;19.40;99.90
3752;DHT22;50827;47.014;7.652;2022-08-19T10:21:52;19.30;99.90
3752;DHT22;50827;47.014;7.652;2022-08-19T10:24:19;19.50;99.90
3752;DHT22;50827;47.014;7.652;2022-08-19T10:26:47;19.40;99.90
3752;DHT22;50827;47.014;7.652;2022-08-19T10:29:24;19.40;99.90
3752;DHT22;50827;47.014;7.652;2022-08-19T10:32:00;19.50;99.90
3752;DHT22;50827;47.014;7.652;2022-08-19T10:34:29;19.50;99.90
3752;DHT22;50827;47.014;7.652;2022-08-19T10:36:57;19.50;99.90
3752;DHT22;50827;47.014;7.652;2022-08-19T10:39:31;19.50;99.90
3752;DHT22;50827;47.014;7.652;2022-08-19T10:42:08;19.40;99.90
3752;DHT22;50827;47.014;7.652;2022-08-19T10:44:37;19.40;99.90
3752;DHT22;50827;47.014;7.652;2022-08-19T10:47:04;19.30;99.90
3752;DHT22;50827;47.014;7.652;2022-08-19T10:49:50;19.30;99.90
3752;DHT22;50827;47.014;7.652;2022-08-19T10:52:39;19.40;99.90
3752;DHT22;50827;47.014;7.652;2022-08-19T10:55:17;19.30;99.90
3752;DHT22;50827;47.014;7.652;2022-08-19T10:58:02;19.20;99.90
3752;DHT22;50827;47.014;7.652;2022-08-19T11:00:29;19.20;99.90
3752;DHT22;50827;47.014;7.652;2022-08-19T11:02:57;19.10;99.90
3752;DHT22;50827;47.014;7.652;2022-08-19T11:05:24;19.20;99.90
3752;DHT22;50827;47.014;7.652;2022-08-19T11:07:51;19.20;99.90
3752;DHT22;50827;47.014;7.652;2022-08-19T11:10:19;19.30;99.90
3752;DHT22;50827;47.014;7.652;2022-08-19T11:12:48;19.30;99.90
3752;DHT22;50827;47.014;7.652;2022-08-19T11:15:15;19.40;99.90
3752;DHT22;50827;47.014;7.652;2022-08-19T11:17:42;19.50;99.90
3752;DHT22;50827;47.014;7.652;2022-08-19T11:20:11;19.60;99.90
3752;DHT22;50827;47.014;7.652;2022-08-19T11:22:39;19.70;99.90
3752;DHT22;50827;47.014;7.652;2022-08-19T11:25:09;19.80;99.90
3752;DHT22;50827;47.014;7.652;2022-08-19T11:27:39;19.80;99.90
3752;DHT22;50827;47.014;7.652;2022-08-19T11:30:09;19.90;99.90
3752;DHT22;50827;47.014;7.652;2022-08-19T11:32:40;19.90;99.90
3752;DHT22;50827;47.014;7.652;2022-08-19T11:35:14;19.80;99.90
3752;DHT22;50827;47.014;7.652;2022-08-19T11:37:42;19.70;99.90
3752;DHT22;50827;47.014;7.652;2022-08-19T11:40:09;19.60;99.90
3752;DHT22;50827;47.014;7.652;2022-08-19T11:42:36;19.50;99.90
3752;DHT22;50827;47.014;7.652;2022-08-19T11:45:23;19.50;99.90
3752;DHT22;50827;47.014;7.652;2022-08-19T11:47:50;19.50;99.90
3752;DHT22;50827;47.014;7.652;2022-08-19T11:50:16;19.50;99.90
3752;DHT22;50827;47.014;7.652;2022-08-19T11:52:45;19.30;99.90
3752;DHT22;50827;47.014;7.652;2022-08-19T11:55:13;19.40;99.90
3752;DHT22;50827;47.014;7.652;2022-08-19T11:57:40;19.40;99.90
3752;DHT22;50827;47.014;7.652;2022-08-19T12:00:08;19.50;99.90
3752;DHT22;50827;47.014;7.652;2022-08-19T12:02:36;19.50;99.90
3752;DHT22;50827;47.014;7.652;2022-08-19T12:05:03;19.40;99.90
3752;DHT22;50827;47.014;7.652;2022-08-19T12:07:35;19.40;99.90
3752;DHT22;50827;47.014;7.652;2022-08-19T12:10:02;19.40;99.90
3752;DHT22;50827;47.014;7.652;2022-08-19T12:12:29;19.40;99.90
3752;DHT22;50827;47.014;7.652;2022-08-19T12:14:56;19.40;99.90
3752;DHT22;50827;47.014;7.652;2022-08-19T12:17:25;19.50;99.90
3752;DHT22;50827;47.014;7.652;2022-08-19T12:19:53;19.40;99.90
3752;DHT22;50827;47.014;7.652;2022-08-19T12:22:20;19.40;99.90
3752;DHT22;50827;47.014;7.652;2022-08-19T12:24:48;19.40;99.90
3752;DHT22;50827;47.014;7.652;2022-08-19T12:27:17;19.40;99.90
3752;DHT22;50827;47.014;7.652;2022-08-19T12:29:57;19.40;99.90
3752;DHT22;50827;47.014;7.652;2022-08-19T12:32:28;19.40;99.90
3752;DHT22;50827;47.014;7.652;2022-08-19T12:34:54;19.40;99.90
3752;DHT22;50827;47.014;7.652;2022-08-19T12:37:21;19.40;99.90
3752;DHT22;50827;47.014;7.652;2022-08-19T12:39:48;19.30;99.90
3752;DHT22;50827;47.014;7.652;2022-08-19T12:42:15;19.40;99.90
3752;DHT22;50827;47.014;7.652;2022-08-19T12:44:42;19.40;99.90
3752;DHT22;50827;47.014;7.652;2022-08-19T12:47:11;19.30;99.90
3752;DHT22;50827;47.014;7.652;2022-08-19T12:49:41;19.30;99.90
3752;DHT22;50827;47.014;7.652;2022-08-19T12:52:22;19.30;99.90
3752;DHT22;50827;47.014;7.652;2022-08-19T12:54:51;19.30;99.90
3752;DHT22;50827;47.014;7.652;2022-08-19T12:57:21;19.30;99.90
3752;DHT22;50827;47.014;7.652;2022-08-19T13:00:00;19.20;99.90
3752;DHT22;50827;47.014;7.652;2022-08-19T13:02:27;19.20;99.90
3752;DHT22;50827;47.014;7.652;2022-08-19T13:04:53;19.20;99.90
3752;DHT22;50827;47.014;7.652;2022-08-19T13:07:20;19.20;99.90
3752;DHT22;50827;47.014;7.652;2022-08-19T13:09:47;19.20;99.90
3752;DHT22;50827;47.014;7.652;2022-08-19T13:12:17;19.10;99.90
3752;DHT22;50827;47.014;7.652;2022-08-19T13:14:50;19.10;99.90
3752;DHT22;50827;47.014;7.652;2022-08-19T13:17:19;19.20;99.90
3752;DHT22;50827;47.014;7.652;2022-08-19T13:19:46;19.10;99.90
3752;DHT22;50827;47.014;7.652;2022-08-19T13:22:13;19.10;99.90
3752;DHT22;50827;47.014;7.652;2022-08-19T13:24:40;19.20;99.90
3752;DHT22;50827;47.014;7.652;2022-08-19T13:27:12;19.20;99.90
3752;DHT22;50827;47.014;7.652;2022-08-19T13:29:41;19.20;99.90
3752;DHT22;50827;47.014;7.652;2022-08-19T13:32:26;19.10;99.90
3752;DHT22;50827;47.014;7.652;2022-08-19T13:35:11;19.10;99.90
3752;DHT22;50827;47.014;7.652;2022-08-19T13:37:42;19.10;99.90
3752;DHT22;50827;47.014;7.652;2022-08-19T13:40:21;19.20;99.90
3752;DHT22;50827;47.014;7.652;2022-08-19T13:42:53;19.20;99.90
3752;DHT22;50827;47.014;7.652;2022-08-19T13:45:22;19.20;99.90
3752;DHT22;50827;47.014;7.652;2022-08-19T13:47:52;19.10;99.90
3752;DHT22;50827;47.014;7.652;2022-08-19T13:50:27;19.10;99.90
3752;DHT22;50827;47.014;7.652;2022-08-19T13:52:55;19.10;99.90
3752;DHT22;50827;47.014;7.652;2022-08-19T13:55:23;19.10;99.90
3752;DHT22;50827;47.014;7.652;2022-08-19T13:57:59;19.20;99.90
3752;DHT22;50827;47.014;7.652;2022-08-19T14:00:31;19.20;99.90
3752;DHT22;50827;47.014;7.652;2022-08-19T14:02:58;19.20;99.90
3752;DHT22;50827;47.014;7.652;2022-08-19T14:05:26;19.20;99.90
3752;DHT22;50827;47.014;7.652;2022-08-19T14:07:53;19.10;99.90
3752;DHT22;50827;47.014;7.652;2022-08-19T14:10:20;19.10;99.90
3752;DHT22;50827;47.014;7.652;2022-08-19T14:12:47;19.10;99.90
3752;DHT22;50827;47.014;7.652;2022-08-19T14:15:15;19.10;99.90
3752;DHT22;50827;47.014;7.652;2022-08-19T14:17:43;19.00;99.90
3752;DHT22;50827;47.014;7.652;2022-08-19T14:20:12;19.00;99.90
3752;DHT22;50827;47.014;7.652;2022-08-19T14:22:45;19.00;99.90
3752;DHT22;50827;47.014;7.652;2022-08-19T14:25:17;19.00;99.90
3752;DHT22;50827;47.014;7.652;2022-08-19T14:27:44;19.00;99.90
3752;DHT22;50827;47.014;7.652;2022-08-19T14:30:16;19.00;99.90
3752;DHT22;50827;47.014;7.652;2022-08-19T14:32:43;19.00;99.90
3752;DHT22;50827;47.014;7.652;2022-08-19T14:35:11;19.10;99.90
3752;DHT22;50827;47.014;7.652;2022-08-19T14:37:39;19.10;99.90
3752;DHT22;50827;47.014;7.652;2022-08-19T14:40:13;19.20;99.90
3752;DHT22;50827;47.014;7.652;2022-08-19T14:42:40;19.20;99.90
3752;DHT22;50827;47.014;7.652;2022-08-19T14:45:09;19.20;99.90
3752;DHT22;50827;47.014;7.652;2022-08-19T14:47:36;19.20;99.90
3752;DHT22;50827;47.014;7.652;2022-08-19T14:50:10;19.10;99.90
3752;DHT22;50827;47.014;7.652;2022-08-19T14:52:44;19.20;99.90
3752;DHT22;50827;47.014;7.652;2022-08-19T14:55:11;19.20;99.90
3752;DHT22;50827;47.014;7.652;2022-08-19T14:57:40;19.20;99.90
3752;DHT22;50827;47.014;7.652;2022-08-19T15:00:08;19.20;99.90
3752;DHT22;50827;47.014;7.652;2022-08-19T15:02:40;19.20;99.90
3752;DHT22;50827;47.014;7.652;2022-08-19T15:05:07;19.20;99.90
3752;DHT22;50827;47.014;7.652;2022-08-19T15:07:34;19.20;99.90
3752;DHT22;50827;47.014;7.652;2022-08-19T15:10:00;19.20;99.90
3752;DHT22;50827;47.014;7.652;2022-08-19T15:12:27;19.20;99.90
3752;DHT22;50827;47.014;7.652;2022-08-19T15:14:54;19.20;99.90
3752;DHT22;50827;47.014;7.652;2022-08-19T15:17:22;19.10;99.90
3752;DHT22;50827;47.014;7.652;2022-08-19T15:20:10;19.10;99.90
3752;DHT22;50827;47.014;7.652;2022-08-19T15:22:39;19.10;99.90
3752;DHT22;50827;47.014;7.652;2022-08-19T15:25:07;19.20;99.90
3752;DHT22;50827;47.014;7.652;2022-08-19T15:27:37;19.20;99.90
3752;DHT22;50827;47.014;7.652;2022-08-19T15:30:07;19.10;99.90
3752;DHT22;50827;47.014;7.652;2022-08-19T15:32:35;19.00;99.90
3752;DHT22;50827;47.014;7.652;2022-08-19T15:35:04;19.00;99.90
3752;DHT22;50827;47.014;7.652;2022-08-19T15:37:32;19.00;99.90
3752;DHT22;50827;47.014;7.652;2022-08-19T15:40:04;19.00;99.90
3752;DHT22;50827;47.014;7.652;2022-08-19T15:42:31;19.00;99.90
3752;DHT22;50827;47.014;7.652;2022-08-19T15:44:58;19.10;99.90
3752;DHT22;50827;47.014;7.652;2022-08-19T15:47:30;19.00;99.90
3752;DHT22;50827;47.014;7.652;2022-08-19T15:50:18;19.00;99.90
3752;DHT22;50827;47.014;7.652;2022-08-19T15:52:54;19.00;99.90
3752;DHT22;50827;47.014;7.652;2022-08-19T15:55:28;19.00;99.90
3752;DHT22;50827;47.014;7.652;2022-08-19T15:58:06;19.00;99.90
3752;DHT22;50827;47.014;7.652;2022-08-19T16:00:57;18.90;99.90
3752;DHT22;50827;47.014;7.652;2022-08-19T16:03:47;19.00;99.90
3752;DHT22;50827;47.014;7.652;2022-08-19T16:06:50;19.00;99.90
3752;DHT22;50827;47.014;7.652;2022-08-19T16:09:18;19.00;99.90
3752;DHT22;50827;47.014;7.652;2022-08-19T16:11:52;19.00;99.90
3752;DHT22;50827;47.014;7.652;2022-08-19T16:14:25;19.00;99.90
3752;DHT22;50827;47.014;7.652;2022-08-19T16:16:51;19.00;99.90
3752;DHT22;50827;47.014;7.652;2022-08-19T16:19:21;19.00;99.90
3752;DHT22;50827;47.014;7.652;2022-08-19T16:21:50;18.90;99.90
3752;DHT22;50827;47.014;7.652;2022-08-19T16:24:21;18.90;99.90
3752;DHT22;50827;47.014;7.652;2022-08-19T16:26:48;18.80;99.90
3752;DHT22;50827;47.014;7.652;2022-08-19T16:29:16;18.80;99.90
3752;DHT22;50827;47.014;7.652;2022-08-19T16:32:08;18.80;99.90